createdAt,value
2022-10-26T00:02:24.089Z,15.40
2022-10-26T00:04:52.042Z,15.43
2022-10-26T00:07:19.979Z,15.37
2022-10-26T00:09:49.327Z,15.43
2022-10-26T00:12:17.265Z,15.50
2022-10-26T00:14:45.255Z,15.54
2022-10-26T00:17:13.172Z,15.56
2022-10-26T00:19:41.302Z,15.61
2022-10-26T00:22:09.325Z,15.59
2022-10-26T00:24:37.340Z,15.60
2022-10-26T00:27:06.570Z,15.61
2022-10-26T00:29:34.519Z,15.49
2022-10-26T00:32:02.824Z,15.39
2022-10-26T00:34:31.213Z,15.43
2022-10-26T00:36:59.941Z,15.35
2022-10-26T00:39:27.865Z,15.51
2022-10-26T00:41:55.853Z,15.57
2022-10-26T00:45:01.976Z,15.59
2022-10-26T00:47:37.054Z,15.47
2022-10-26T00:50:09.259Z,15.42
2022-10-26T00:52:38.471Z,15.44
2022-10-26T00:55:08.563Z,15.47
2022-10-26T00:57:38.656Z,15.49
2022-10-26T01:00:09.965Z,15.51
2022-10-26T01:02:38.068Z,15.40
2022-10-26T01:05:07.460Z,15.30
2022-10-26T01:07:35.878Z,15.34
2022-10-26T01:10:03.957Z,15.36
2022-10-26T01:12:32.132Z,15.30
2022-10-26T01:15:00.298Z,15.33
2022-10-26T01:17:42.136Z,15.39
2022-10-26T01:20:40.392Z,15.41
2022-10-26T01:23:17.164Z,15.24
2022-10-26T01:26:17.603Z,15.30
2022-10-26T01:29:08.145Z,15.34
2022-10-26T01:31:43.249Z,15.35
2022-10-26T01:34:17.791Z,15.41
2022-10-26T01:36:53.975Z,15.41
2022-10-26T01:39:28.396Z,15.37
2022-10-26T01:42:01.161Z,15.41
2022-10-26T01:44:33.729Z,15.44
2022-10-26T01:47:05.277Z,15.46
2022-10-26T01:49:37.963Z,15.40
2022-10-26T01:52:06.529Z,15.40
2022-10-26T01:57:13.878Z,15.29
2022-10-26T01:59:57.684Z,15.20
2022-10-26T02:02:42.958Z,15.25
2022-10-26T02:05:34.176Z,14.98
2022-10-26T02:08:24.563Z,15.04
2022-10-26T02:11:11.205Z,15.05
2022-10-26T02:13:44.651Z,15.02
2022-10-26T02:16:21.891Z,15.03
2022-10-26T02:18:57.417Z,15.06
2022-10-26T02:21:32.551Z,15.08
2022-10-26T02:24:00.766Z,15.12
2022-10-26T02:26:31.360Z,15.14
2022-10-26T02:29:03.869Z,15.17
2022-10-26T02:31:33.826Z,15.18
2022-10-26T02:34:08.314Z,15.21
2022-10-26T02:36:40.011Z,15.12
2022-10-26T02:39:10.396Z,15.10
2022-10-26T02:41:40.597Z,15.10
2022-10-26T02:44:14.326Z,15.10
2022-10-26T02:46:43.596Z,15.12
2022-10-26T02:49:13.778Z,15.13
2022-10-26T02:54:26.387Z,15.11
2022-10-26T02:56:59.124Z,15.10
2022-10-26T02:59:31.722Z,15.10
2022-10-26T03:01:59.736Z,15.08
2022-10-26T03:04:34.422Z,15.05
2022-10-26T03:07:03.466Z,15.05
2022-10-26T03:09:31.444Z,15.08
2022-10-26T03:11:59.619Z,15.08
2022-10-26T03:14:27.751Z,15.07
2022-10-26T03:16:55.781Z,15.05
2022-10-26T03:19:23.961Z,15.07
2022-10-26T03:21:53.222Z,15.03
2022-10-26T03:24:21.073Z,15.05
2022-10-26T03:26:48.925Z,15.08
2022-10-26T03:29:16.943Z,15.05
2022-10-26T03:31:44.840Z,15.07
2022-10-26T03:34:13.962Z,15.09
2022-10-26T03:36:41.857Z,15.08
2022-10-26T03:39:11.186Z,15.08
2022-10-26T03:41:39.035Z,15.07
2022-10-26T03:44:06.969Z,15.08
2022-10-26T03:46:35.062Z,15.04
2022-10-26T03:49:02.955Z,14.95
2022-10-26T03:51:31.063Z,14.93
2022-10-26T03:53:58.973Z,14.98
2022-10-26T03:56:28.539Z,14.96
2022-10-26T03:58:56.482Z,14.97
2022-10-26T04:01:24.610Z,14.93
2022-10-26T04:03:52.528Z,14.95
2022-10-26T04:06:20.556Z,14.96
2022-10-26T04:08:48.511Z,14.91
2022-10-26T04:11:16.448Z,14.92
2022-10-26T04:13:45.736Z,14.91
2022-10-26T04:16:13.597Z,14.88
2022-10-26T04:18:41.476Z,14.88
2022-10-26T04:21:09.309Z,14.90
2022-10-26T04:23:37.159Z,14.86
2022-10-26T04:26:06.649Z,14.86
2022-10-26T04:28:35.251Z,14.84
2022-10-26T04:31:04.656Z,14.84
2022-10-26T04:33:33.031Z,14.81
2022-10-26T04:36:02.069Z,14.83
2022-10-26T04:38:30.221Z,14.81
2022-10-26T04:40:58.321Z,14.83
2022-10-26T04:43:26.410Z,14.82
2022-10-26T04:45:57.432Z,14.80
2022-10-26T04:48:27.018Z,14.78
2022-10-26T04:50:54.974Z,14.73
2022-10-26T04:53:22.829Z,14.75
2022-10-26T04:55:50.670Z,14.74
2022-10-26T04:58:18.517Z,14.74
2022-10-26T05:00:46.456Z,14.76
2022-10-26T05:03:14.309Z,14.75
2022-10-26T05:05:43.769Z,14.71
2022-10-26T05:08:11.675Z,14.63
2022-10-26T05:10:39.598Z,14.51
2022-10-26T05:13:07.674Z,14.50
2022-10-26T05:15:35.690Z,14.43
2022-10-26T05:18:06.534Z,14.30
2022-10-26T05:20:36.173Z,14.28
2022-10-26T05:23:07.414Z,14.23
2022-10-26T05:25:37.859Z,14.06
2022-10-26T05:28:08.073Z,13.98
2022-10-26T05:30:36.515Z,14.08
2022-10-26T05:33:04.424Z,14.14
2022-10-26T05:35:33.884Z,14.08
2022-10-26T05:38:09.740Z,14.18
2022-10-26T05:40:38.146Z,14.26
2022-10-26T05:43:06.194Z,14.35
2022-10-26T05:45:34.048Z,14.37
2022-10-26T05:48:03.042Z,14.41
2022-10-26T05:50:31.540Z,14.46
2022-10-26T05:52:59.629Z,14.42
2022-10-26T05:55:29.707Z,14.43
2022-10-26T05:57:58.129Z,14.48
2022-10-26T06:00:28.664Z,14.54
2022-10-26T06:03:08.763Z,14.60
2022-10-26T06:05:39.893Z,14.62
2022-10-26T06:08:11.417Z,14.66
2022-10-26T06:10:41.669Z,14.71
2022-10-26T06:13:10.062Z,14.72
2022-10-26T06:15:48.166Z,14.73
2022-10-26T06:18:26.829Z,14.67
2022-10-26T06:21:11.258Z,14.65
2022-10-26T06:23:49.898Z,14.65
2022-10-26T06:26:31.228Z,14.64
2022-10-26T06:29:11.235Z,14.68
2022-10-26T06:31:39.212Z,14.70
2022-10-26T06:34:07.211Z,14.72
2022-10-26T06:36:36.107Z,14.71
2022-10-26T06:39:07.968Z,14.63
2022-10-26T06:41:38.142Z,14.54
2022-10-26T06:44:07.112Z,14.54
2022-10-26T06:46:42.774Z,14.59
2022-10-26T06:49:21.077Z,14.57
2022-10-26T06:51:54.622Z,14.48
2022-10-26T06:54:25.677Z,14.71
2022-10-26T06:56:55.758Z,14.49
2022-10-26T06:59:33.890Z,14.47
2022-10-26T07:02:05.597Z,14.41
2022-10-26T07:04:34.834Z,14.36
2022-10-26T07:07:03.042Z,14.42
2022-10-26T07:09:31.135Z,14.40
2022-10-26T07:12:00.819Z,14.44
2022-10-26T07:14:28.767Z,14.25
2022-10-26T07:16:57.040Z,14.37
2022-10-26T07:19:25.153Z,14.33
2022-10-26T07:21:56.617Z,14.27
2022-10-26T07:24:24.624Z,14.39
2022-10-26T07:26:54.621Z,14.42
2022-10-26T07:29:24.377Z,14.47
2022-10-26T07:34:22.023Z,14.51
2022-10-26T07:36:51.695Z,14.41
2022-10-26T07:39:22.140Z,14.49
2022-10-26T07:41:50.345Z,14.44
2022-10-26T07:44:18.291Z,14.47
2022-10-26T07:46:47.475Z,14.38
2022-10-26T07:49:19.144Z,14.50
2022-10-26T07:51:47.602Z,14.55
2022-10-26T07:54:15.538Z,14.48
2022-10-26T07:56:43.441Z,14.66
2022-10-26T07:59:13.126Z,14.69
2022-10-26T08:01:41.334Z,14.72
2022-10-26T08:04:10.913Z,14.73
2022-10-26T08:06:38.976Z,14.74
2022-10-26T08:09:07.171Z,14.83
2022-10-26T08:11:37.031Z,14.82
2022-10-26T08:14:05.869Z,14.81
2022-10-26T08:16:34.905Z,14.87
2022-10-26T08:19:02.952Z,14.81
2022-10-26T08:21:39.551Z,14.92
2022-10-26T08:24:08.666Z,14.91
2022-10-26T08:26:36.748Z,14.74
2022-10-26T08:29:04.829Z,14.79
2022-10-26T08:31:32.735Z,14.82
2022-10-26T08:34:01.815Z,14.79
2022-10-26T08:36:30.092Z,14.79
2022-10-26T08:41:37.946Z,14.95
2022-10-26T08:44:21.679Z,14.98
2022-10-26T08:46:54.493Z,14.99
2022-10-26T08:49:26.256Z,14.96
2022-10-26T08:51:58.938Z,15.02
2022-10-26T08:54:37.283Z,15.13
2022-10-26T08:57:15.809Z,15.20
2022-10-26T08:59:50.287Z,15.30
2022-10-26T09:02:18.986Z,15.28
2022-10-26T09:04:47.158Z,15.25
2022-10-26T09:07:27.246Z,15.36
2022-10-26T09:10:05.421Z,15.48
2022-10-26T09:12:47.211Z,15.50
2022-10-26T09:15:23.805Z,15.53
2022-10-26T09:17:59.144Z,15.54
2022-10-26T09:20:49.071Z,15.62
2022-10-26T09:23:30.372Z,15.68
2022-10-26T09:26:02.436Z,15.60
2022-10-26T09:28:36.635Z,15.68
2022-10-26T09:31:05.852Z,15.75
2022-10-26T09:33:38.863Z,15.83
2022-10-26T09:36:11.982Z,15.90
2022-10-26T09:38:47.769Z,15.98
2022-10-26T09:41:26.101Z,16.04
2022-10-26T09:44:02.796Z,16.08
2022-10-26T09:46:35.775Z,16.15
2022-10-26T09:49:07.752Z,16.17
2022-10-26T09:51:38.040Z,16.33
2022-10-26T09:54:14.809Z,16.40
2022-10-26T09:56:45.889Z,16.48
2022-10-26T09:59:15.792Z,16.41
2022-10-26T10:01:43.901Z,16.44
2022-10-26T10:04:20.203Z,16.60
2022-10-26T10:06:49.473Z,16.59
2022-10-26T10:09:19.315Z,16.69
2022-10-26T10:11:55.360Z,16.75
2022-10-26T10:14:25.319Z,16.85
2022-10-26T10:16:56.144Z,16.86
2022-10-26T10:19:27.935Z,16.73
2022-10-26T10:21:58.721Z,16.71
2022-10-26T10:24:29.259Z,16.91
2022-10-26T10:27:01.275Z,17.04
2022-10-26T10:29:31.053Z,17.18
2022-10-26T10:32:01.026Z,17.19
2022-10-26T10:34:31.924Z,17.18
2022-10-26T10:37:01.862Z,17.20
2022-10-26T10:39:39.654Z,17.02
2022-10-26T10:42:19.659Z,17.11
2022-10-26T10:44:52.292Z,17.05
2022-10-26T10:47:24.063Z,17.13
2022-10-26T10:49:55.722Z,17.21
2022-10-26T10:52:27.403Z,17.24
2022-10-26T10:55:08.940Z,17.24
2022-10-26T10:57:52.507Z,17.17
2022-10-26T11:00:25.673Z,17.18
2022-10-26T11:03:16.714Z,17.16
2022-10-26T11:05:55.521Z,17.26
2022-10-26T11:08:30.117Z,17.34
2022-10-26T11:11:02.891Z,17.47
2022-10-26T11:13:38.355Z,17.55
2022-10-26T11:16:13.592Z,17.62
2022-10-26T11:18:45.588Z,17.73
2022-10-26T11:21:24.274Z,17.84
2022-10-26T11:24:01.764Z,17.94
2022-10-26T11:26:34.961Z,17.92
2022-10-26T11:29:08.523Z,17.91
2022-10-26T11:31:41.388Z,17.95
2022-10-26T11:34:20.795Z,17.94
2022-10-26T11:36:55.058Z,17.97
2022-10-26T11:39:32.972Z,17.96
2022-10-26T11:42:05.425Z,17.97
2022-10-26T11:44:41.025Z,18.02
2022-10-26T11:47:15.984Z,18.16
2022-10-26T11:49:49.215Z,18.18
2022-10-26T11:52:23.747Z,18.35
2022-10-26T11:54:55.750Z,18.44
2022-10-26T11:57:25.009Z,18.62
2022-10-26T11:59:57.062Z,18.62
2022-10-26T12:02:26.972Z,18.82
2022-10-26T12:05:00.166Z,19.01
2022-10-26T12:07:32.471Z,19.07
2022-10-26T12:10:02.674Z,19.18
2022-10-26T12:12:39.397Z,19.28
2022-10-26T12:15:24.833Z,19.26
2022-10-26T12:18:07.342Z,19.13
2022-10-26T12:21:02.846Z,19.02
2022-10-26T12:26:39.930Z,19.06
2022-10-26T12:29:29.367Z,19.12
2022-10-26T12:32:00.535Z,19.22
2022-10-26T12:34:58.713Z,19.36
2022-10-26T12:37:36.933Z,19.43
2022-10-26T12:40:43.829Z,19.56
2022-10-26T12:43:37.856Z,19.36
2022-10-26T12:46:39.015Z,19.33
2022-10-26T12:49:45.842Z,18.87
2022-10-26T12:52:29.066Z,18.94
2022-10-26T12:55:41.533Z,18.80
2022-10-26T12:58:46.777Z,18.65
2022-10-26T13:04:38.846Z,18.60
2022-10-26T13:07:29.036Z,18.85
2022-10-26T13:10:02.386Z,18.95
2022-10-26T13:12:39.705Z,19.14
2022-10-26T13:15:21.625Z,19.10
2022-10-26T13:18:08.968Z,19.11
2022-10-26T13:20:52.357Z,18.99
2022-10-26T13:23:26.778Z,18.86
2022-10-26T13:26:12.058Z,18.70
2022-10-26T13:28:51.982Z,18.76
2022-10-26T13:31:57.018Z,18.77
2022-10-26T13:34:28.637Z,18.79
2022-10-26T13:37:17.072Z,18.90
2022-10-26T13:39:47.601Z,18.56
2022-10-26T13:42:19.298Z,18.65
2022-10-26T13:44:53.782Z,18.56
2022-10-26T13:47:28.322Z,18.61
2022-10-26T13:50:05.182Z,18.61
2022-10-26T13:52:38.079Z,18.72
2022-10-26T13:55:11.147Z,18.65
2022-10-26T13:57:43.893Z,18.65
2022-10-26T14:00:20.351Z,18.68
2022-10-26T14:02:48.777Z,18.66
2022-10-26T14:05:19.594Z,18.61
2022-10-26T14:07:55.865Z,18.44
2022-10-26T14:10:28.930Z,18.55
2022-10-26T14:12:57.203Z,18.44
2022-10-26T14:15:27.934Z,18.48
2022-10-26T14:17:56.935Z,18.42
2022-10-26T14:20:27.371Z,18.45
2022-10-26T14:22:57.009Z,18.31
2022-10-26T14:25:36.220Z,18.40
2022-10-26T14:28:22.898Z,18.58
2022-10-26T14:30:52.296Z,18.62
2022-10-26T14:33:21.682Z,18.66
2022-10-26T14:35:50.295Z,18.70
2022-10-26T14:38:26.429Z,18.85
2022-10-26T14:40:57.252Z,18.89
2022-10-26T14:43:26.910Z,18.89
2022-10-26T14:45:56.826Z,18.97
2022-10-26T14:48:30.016Z,18.88
2022-10-26T14:50:58.950Z,18.88
2022-10-26T14:53:35.527Z,18.59
2022-10-26T14:56:06.772Z,18.62
2022-10-26T14:58:36.136Z,18.65
2022-10-26T15:01:18.483Z,18.67
2022-10-26T15:03:49.773Z,18.59
2022-10-26T15:06:34.326Z,18.70
2022-10-26T15:09:06.805Z,18.38
2022-10-26T15:11:36.524Z,18.41
2022-10-26T15:14:04.632Z,18.42
2022-10-26T15:16:36.097Z,18.38
2022-10-26T15:19:10.808Z,18.42
2022-10-26T15:21:41.087Z,18.37
2022-10-26T15:24:36.057Z,18.47
2022-10-26T15:27:15.757Z,18.31
2022-10-26T15:29:45.571Z,18.26
2022-10-26T15:32:29.790Z,18.35
2022-10-26T15:35:25.406Z,18.28
2022-10-26T15:37:55.665Z,18.30
2022-10-26T15:42:55.179Z,18.35
2022-10-26T15:45:24.701Z,18.22
2022-10-26T15:47:54.667Z,18.20
2022-10-26T15:50:24.976Z,18.31
2022-10-26T15:53:00.965Z,18.27
2022-10-26T15:55:32.264Z,18.31
2022-10-26T15:58:00.145Z,18.00
2022-10-26T16:00:28.583Z,18.11
2022-10-26T16:02:57.073Z,17.89
2022-10-26T16:05:25.073Z,17.93
2022-10-26T16:07:53.232Z,17.94
2022-10-26T16:10:25.841Z,17.99
2022-10-26T16:12:55.529Z,18.00
2022-10-26T16:15:25.460Z,18.02
2022-10-26T16:17:54.006Z,18.12
2022-10-26T16:20:24.395Z,18.09
2022-10-26T16:22:53.814Z,18.03
2022-10-26T16:25:24.434Z,17.96
2022-10-26T16:27:53.400Z,18.03
2022-10-26T16:30:25.905Z,18.02
2022-10-26T16:32:56.269Z,18.03
2022-10-26T16:35:24.647Z,18.13
2022-10-26T16:37:52.838Z,18.04
2022-10-26T16:40:20.868Z,18.02
2022-10-26T16:42:49.233Z,17.97
2022-10-26T16:45:17.739Z,18.00
2022-10-26T16:47:47.751Z,17.98
2022-10-26T16:50:16.598Z,18.02
2022-10-26T16:52:47.409Z,18.11
2022-10-26T16:55:15.606Z,18.03
2022-10-26T16:57:43.495Z,18.05
2022-10-26T17:00:12.311Z,17.95
2022-10-26T17:02:41.059Z,17.97
2022-10-26T17:05:10.847Z,17.79
2022-10-26T17:07:38.871Z,17.85
2022-10-26T17:10:10.119Z,17.82
2022-10-26T17:12:37.981Z,17.83
2022-10-26T17:15:09.653Z,17.94
2022-10-26T17:17:37.810Z,17.94
2022-10-26T17:20:07.171Z,17.83
2022-10-26T17:22:36.384Z,17.76
2022-10-26T17:25:04.585Z,17.79
2022-10-26T17:27:33.530Z,17.74
2022-10-26T17:30:02.852Z,17.84
2022-10-26T17:32:32.150Z,17.85
2022-10-26T17:35:02.335Z,17.86
2022-10-26T17:37:30.766Z,17.72
2022-10-26T17:40:00.422Z,17.79
2022-10-26T17:42:28.534Z,17.78
2022-10-26T17:44:56.614Z,17.79
2022-10-26T17:47:24.576Z,17.84
2022-10-26T17:49:52.532Z,17.83
2022-10-26T17:52:20.614Z,17.75
2022-10-26T17:54:48.505Z,17.90
2022-10-26T17:57:17.808Z,17.80
2022-10-26T17:59:45.780Z,17.78
2022-10-26T18:02:14.177Z,17.81
2022-10-26T18:04:42.399Z,17.76
2022-10-26T18:07:10.354Z,17.72
2022-10-26T18:09:38.413Z,17.75
2022-10-26T18:12:07.507Z,17.80
2022-10-26T18:14:37.214Z,17.74
2022-10-26T18:17:05.304Z,17.78
2022-10-26T18:19:34.090Z,17.81
2022-10-26T18:22:02.866Z,17.73
2022-10-26T18:24:31.078Z,17.64
2022-10-26T18:26:59.452Z,17.61
2022-10-26T18:29:27.486Z,17.62
2022-10-26T18:31:56.951Z,17.40
2022-10-26T18:34:25.150Z,17.52
2022-10-26T18:36:54.485Z,17.47
2022-10-26T18:39:22.469Z,17.53
2022-10-26T18:41:50.832Z,17.47
2022-10-26T18:44:19.755Z,17.54
2022-10-26T18:46:51.880Z,17.54
2022-10-26T18:49:21.427Z,17.62
2022-10-26T18:51:49.496Z,17.55
2022-10-26T18:54:17.426Z,17.55
2022-10-26T18:56:45.466Z,17.51
2022-10-26T18:59:13.698Z,17.55
2022-10-26T19:01:42.421Z,17.50
2022-10-26T19:04:11.601Z,17.49
2022-10-26T19:06:45.106Z,17.44
2022-10-26T19:09:12.896Z,17.69
2022-10-26T19:11:42.382Z,17.47
2022-10-26T19:14:10.387Z,17.48
2022-10-26T19:16:47.454Z,17.33
2022-10-26T19:19:17.059Z,17.42
2022-10-26T19:21:47.258Z,17.45
2022-10-26T19:24:18.041Z,17.35
2022-10-26T19:26:47.162Z,17.36
2022-10-26T19:29:16.862Z,17.36
2022-10-26T19:31:46.421Z,17.47
2022-10-26T19:34:16.540Z,17.41
2022-10-26T19:36:47.293Z,17.40
2022-10-26T19:39:16.773Z,17.39
2022-10-26T19:41:46.202Z,17.41
2022-10-26T19:44:15.448Z,17.47
2022-10-26T19:46:44.275Z,17.52
2022-10-26T19:49:13.507Z,17.58
2022-10-26T19:51:41.580Z,17.53
2022-10-26T19:54:10.854Z,17.58
2022-10-26T19:56:39.521Z,17.46
2022-10-26T19:59:09.376Z,17.48
2022-10-26T20:01:37.648Z,17.40
2022-10-26T20:04:06.343Z,17.48
2022-10-26T20:06:36.755Z,17.49
2022-10-26T20:09:05.898Z,17.34
2022-10-26T20:11:38.107Z,17.38
2022-10-26T20:14:07.629Z,17.39
2022-10-26T20:16:35.816Z,17.34
2022-10-26T20:19:05.218Z,17.43
2022-10-26T20:21:33.774Z,17.33
2022-10-26T20:24:02.474Z,17.31
2022-10-26T20:26:31.886Z,17.35
2022-10-26T20:29:04.226Z,17.32
2022-10-26T20:31:32.721Z,17.41
2022-10-26T20:34:00.758Z,17.42
2022-10-26T20:36:28.661Z,17.39
2022-10-26T20:38:58.023Z,17.38
2022-10-26T20:41:27.211Z,17.30
2022-10-26T20:43:57.988Z,17.18
2022-10-26T20:46:29.127Z,17.25
2022-10-26T20:48:57.738Z,17.23
2022-10-26T20:51:47.601Z,17.22
2022-10-26T20:54:30.300Z,17.14
2022-10-26T20:57:01.773Z,17.19
2022-10-26T20:59:36.728Z,17.21
2022-10-26T21:02:06.415Z,17.16
2022-10-26T21:04:34.472Z,17.24
2022-10-26T21:07:02.661Z,17.21
2022-10-26T21:09:32.938Z,17.23
2022-10-26T21:12:04.650Z,17.19
2022-10-26T21:14:35.821Z,17.21
2022-10-26T21:17:03.642Z,17.19
2022-10-26T21:19:32.955Z,17.21
2022-10-26T21:22:01.416Z,17.09
2022-10-26T21:24:29.785Z,17.06
2022-10-26T21:26:57.751Z,17.02
2022-10-26T21:29:25.670Z,17.02
2022-10-26T21:31:53.548Z,16.98
2022-10-26T21:34:21.395Z,16.87
2022-10-26T21:36:50.567Z,16.86
2022-10-26T21:39:18.445Z,16.98
2022-10-26T21:41:46.303Z,16.92
2022-10-26T21:44:25.982Z,16.92
2022-10-26T21:47:02.027Z,16.93
2022-10-26T21:49:29.917Z,16.90
2022-10-26T21:51:59.159Z,16.85
2022-10-26T21:54:27.149Z,16.74
2022-10-26T21:56:55.137Z,16.82
2022-10-26T21:59:23.012Z,16.86
2022-10-26T22:01:51.086Z,16.86
2022-10-26T22:04:19.039Z,16.86
2022-10-26T22:06:46.870Z,16.84
2022-10-26T22:09:16.105Z,16.85
2022-10-26T22:11:43.995Z,16.92
2022-10-26T22:14:13.589Z,16.93
2022-10-26T22:16:42.195Z,16.89
2022-10-26T22:19:10.635Z,16.90
2022-10-26T22:21:40.648Z,16.96
2022-10-26T22:24:09.712Z,16.90
2022-10-26T22:26:39.462Z,16.76
2022-10-26T22:29:07.521Z,16.83
2022-10-26T22:31:38.211Z,16.85
2022-10-26T22:34:08.510Z,16.80
2022-10-26T22:36:36.650Z,16.66
2022-10-26T22:39:04.814Z,16.60
2022-10-26T22:41:32.872Z,16.59
2022-10-26T22:44:02.059Z,16.48
2022-10-26T22:46:30.297Z,16.58
2022-10-26T22:48:59.895Z,16.61
2022-10-26T22:51:29.478Z,16.43
2022-10-26T22:53:59.174Z,16.48
2022-10-26T22:56:28.462Z,16.58
2022-10-26T22:58:56.770Z,16.49
2022-10-26T23:01:28.576Z,16.60
2022-10-26T23:03:57.103Z,16.64
2022-10-26T23:06:26.965Z,16.68
2022-10-26T23:08:55.174Z,16.71
2022-10-26T23:11:24.840Z,16.73
2022-10-26T23:13:54.063Z,16.58
2022-10-26T23:16:22.524Z,16.67
2022-10-26T23:18:53.228Z,16.75
2022-10-26T23:21:22.197Z,16.77
2022-10-26T23:23:50.378Z,16.83
2022-10-26T23:26:20.987Z,16.84
2022-10-26T23:28:49.831Z,16.90
2022-10-26T23:31:19.600Z,16.90
2022-10-26T23:33:47.992Z,16.88
2022-10-26T23:36:17.244Z,16.87
2022-10-26T23:38:45.519Z,16.86
2022-10-26T23:41:13.824Z,16.86
2022-10-26T23:43:41.753Z,16.84
2022-10-26T23:46:09.637Z,16.81
2022-10-26T23:48:37.632Z,16.75
2022-10-26T23:51:05.902Z,16.69
2022-10-26T23:53:35.441Z,16.67
2022-10-26T23:56:03.411Z,16.67
2022-10-26T23:58:31.274Z,16.68
